sensor_id;sensor_type;location;lat;lon;timestamp;pressure;altitude;pressure_sealevel;temperature;humidity
55517;BME280;41724;51.176;-0.708;2024-03-29T00:01:43;97903.77;;;7.60;100.00
55517;BME280;41724;51.176;-0.708;2024-03-29T00:04:10;97907.63;;;7.36;100.00
55517;BME280;41724;51.176;-0.708;2024-03-29T00:06:37;97907.94;;;7.64;100.00
55517;BME280;41724;51.176;-0.708;2024-03-29T00:09:04;97917.69;;;7.19;100.00
55517;BME280;41724;51.176;-0.708;2024-03-29T00:11:31;97921.39;;;7.54;100.00
55517;BME280;41724;51.176;-0.708;2024-03-29T00:13:58;97928.19;;;7.38;100.00
55517;BME280;41724;51.176;-0.708;2024-03-29T00:16:25;97918.40;;;7.59;100.00
55517;BME280;41724;51.176;-0.708;2024-03-29T00:18:53;97919.41;;;7.54;100.00
55517;BME280;41724;51.176;-0.708;2024-03-29T00:21:20;97917.67;;;7.50;100.00
55517;BME280;41724;51.176;-0.708;2024-03-29T00:23:47;97917.07;;;7.48;100.00
55517;BME280;41724;51.176;-0.708;2024-03-29T00:26:14;97916.96;;;7.71;100.00
55517;BME280;41724;51.176;-0.708;2024-03-29T00:28:41;97917.20;;;7.82;100.00
55517;BME280;41724;51.176;-0.708;2024-03-29T00:31:09;97913.18;;;7.44;100.00
55517;BME280;41724;51.176;-0.708;2024-03-29T00:33:37;97923.29;;;6.74;100.00
55517;BME280;41724;51.176;-0.708;2024-03-29T00:36:04;97916.81;;;7.37;100.00
55517;BME280;41724;51.176;-0.708;2024-03-29T00:38:31;97926.53;;;7.69;100.00
55517;BME280;41724;51.176;-0.708;2024-03-29T00:40:58;97920.45;;;7.32;100.00
55517;BME280;41724;51.176;-0.708;2024-03-29T00:43:25;97919.85;;;8.69;100.00
55517;BME280;41724;51.176;-0.708;2024-03-29T00:45:52;97917.45;;;7.82;100.00
55517;BME280;41724;51.176;-0.708;2024-03-29T00:48:19;97914.46;;;8.05;100.00
55517;BME280;41724;51.176;-0.708;2024-03-29T00:50:46;97919.86;;;7.27;100.00
55517;BME280;41724;51.176;-0.708;2024-03-29T00:53:14;97916.29;;;7.19;100.00
55517;BME280;41724;51.176;-0.708;2024-03-29T00:55:41;97918.27;;;7.42;100.00
55517;BME280;41724;51.176;-0.708;2024-03-29T00:58:08;97909.35;;;7.70;100.00
55517;BME280;41724;51.176;-0.708;2024-03-29T01:00:35;97907.45;;;7.58;100.00
55517;BME280;41724;51.176;-0.708;2024-03-29T01:03:02;97912.14;;;8.25;100.00
55517;BME280;41724;51.176;-0.708;2024-03-29T01:05:31;97925.03;;;7.52;100.00
55517;BME280;41724;51.176;-0.708;2024-03-29T01:07:58;97931.41;;;7.55;100.00
55517;BME280;41724;51.176;-0.708;2024-03-29T01:10:25;97923.49;;;7.67;100.00
55517;BME280;41724;51.176;-0.708;2024-03-29T01:12:52;97919.72;;;7.33;100.00
55517;BME280;41724;51.176;-0.708;2024-03-29T01:15:19;97922.45;;;7.36;100.00
55517;BME280;41724;51.176;-0.708;2024-03-29T01:17:46;97917.10;;;6.89;100.00
55517;BME280;41724;51.176;-0.708;2024-03-29T01:20:14;97919.53;;;7.39;100.00
55517;BME280;41724;51.176;-0.708;2024-03-29T01:22:41;97919.73;;;8.21;100.00
55517;BME280;41724;51.176;-0.708;2024-03-29T01:25:08;97917.54;;;8.25;100.00
55517;BME280;41724;51.176;-0.708;2024-03-29T01:27:35;97917.37;;;9.08;100.00
55517;BME280;41724;51.176;-0.708;2024-03-29T01:30:03;97922.48;;;9.27;100.00
55517;BME280;41724;51.176;-0.708;2024-03-29T01:32:30;97932.44;;;8.78;100.00
55517;BME280;41724;51.176;-0.708;2024-03-29T01:34:58;97925.08;;;8.86;100.00
55517;BME280;41724;51.176;-0.708;2024-03-29T01:37:25;97922.51;;;9.42;100.00
55517;BME280;41724;51.176;-0.708;2024-03-29T01:39:52;97928.67;;;8.73;100.00
55517;BME280;41724;51.176;-0.708;2024-03-29T01:42:19;97932.09;;;8.83;100.00
55517;BME280;41724;51.176;-0.708;2024-03-29T01:44:48;97932.07;;;8.37;100.00
55517;BME280;41724;51.176;-0.708;2024-03-29T01:47:16;97937.33;;;7.99;100.00
55517;BME280;41724;51.176;-0.708;2024-03-29T01:49:44;97933.72;;;9.06;100.00
55517;BME280;41724;51.176;-0.708;2024-03-29T01:52:12;97927.74;;;9.59;100.00
55517;BME280;41724;51.176;-0.708;2024-03-29T01:54:42;97928.68;;;9.05;99.40
55517;BME280;41724;51.176;-0.708;2024-03-29T01:57:10;97930.41;;;8.86;99.85
55517;BME280;41724;51.176;-0.708;2024-03-29T01:59:40;97930.10;;;9.01;100.00
55517;BME280;41724;51.176;-0.708;2024-03-29T02:02:10;97929.62;;;9.72;99.11
55517;BME280;41724;51.176;-0.708;2024-03-29T02:04:38;97932.38;;;10.18;97.58
55517;BME280;41724;51.176;-0.708;2024-03-29T02:07:06;97937.84;;;9.27;98.11
55517;BME280;41724;51.176;-0.708;2024-03-29T02:09:33;97946.70;;;9.16;100.00
55517;BME280;41724;51.176;-0.708;2024-03-29T02:12:00;97942.16;;;9.53;100.00
55517;BME280;41724;51.176;-0.708;2024-03-29T02:14:27;97945.00;;;8.14;100.00
55517;BME280;41724;51.176;-0.708;2024-03-29T02:16:54;97947.05;;;8.26;100.00
55517;BME280;41724;51.176;-0.708;2024-03-29T02:19:21;97957.96;;;7.92;100.00
55517;BME280;41724;51.176;-0.708;2024-03-29T02:21:50;97954.30;;;8.26;100.00
55517;BME280;41724;51.176;-0.708;2024-03-29T02:24:22;97949.80;;;8.89;100.00
55517;BME280;41724;51.176;-0.708;2024-03-29T02:26:49;97954.04;;;8.52;100.00
55517;BME280;41724;51.176;-0.708;2024-03-29T02:29:16;97946.82;;;9.38;100.00
55517;BME280;41724;51.176;-0.708;2024-03-29T02:31:43;97947.43;;;8.09;100.00
55517;BME280;41724;51.176;-0.708;2024-03-29T02:34:11;97937.41;;;8.48;100.00
55517;BME280;41724;51.176;-0.708;2024-03-29T02:36:38;97937.59;;;9.27;100.00
55517;BME280;41724;51.176;-0.708;2024-03-29T02:39:05;97933.84;;;9.03;99.68
55517;BME280;41724;51.176;-0.708;2024-03-29T02:41:33;97944.34;;;9.03;97.26
55517;BME280;41724;51.176;-0.708;2024-03-29T02:44:00;97949.48;;;8.39;100.00
55517;BME280;41724;51.176;-0.708;2024-03-29T02:46:27;97951.82;;;9.16;100.00
55517;BME280;41724;51.176;-0.708;2024-03-29T02:48:54;97954.42;;;9.41;99.35
55517;BME280;41724;51.176;-0.708;2024-03-29T02:51:21;97958.98;;;9.31;98.97
55517;BME280;41724;51.176;-0.708;2024-03-29T02:53:49;97962.97;;;9.06;99.19
55517;BME280;41724;51.176;-0.708;2024-03-29T02:56:16;97966.86;;;8.72;100.00
55517;BME280;41724;51.176;-0.708;2024-03-29T02:58:43;97960.30;;;9.42;99.44
55517;BME280;41724;51.176;-0.708;2024-03-29T03:01:10;97959.29;;;9.30;99.73
55517;BME280;41724;51.176;-0.708;2024-03-29T03:03:37;97963.53;;;8.47;100.00
55517;BME280;41724;51.176;-0.708;2024-03-29T03:06:04;97967.75;;;8.34;100.00
55517;BME280;41724;51.176;-0.708;2024-03-29T03:08:31;97976.47;;;7.79;100.00
55517;BME280;41724;51.176;-0.708;2024-03-29T03:10:58;97975.38;;;8.57;100.00
55517;BME280;41724;51.176;-0.708;2024-03-29T03:13:27;97974.93;;;8.83;100.00
55517;BME280;41724;51.176;-0.708;2024-03-29T03:15:54;97985.19;;;8.32;100.00
55517;BME280;41724;51.176;-0.708;2024-03-29T03:18:21;97998.21;;;8.34;100.00
55517;BME280;41724;51.176;-0.708;2024-03-29T03:20:52;97999.67;;;7.70;100.00
55517;BME280;41724;51.176;-0.708;2024-03-29T03:23:19;98005.63;;;7.34;100.00
55517;BME280;41724;51.176;-0.708;2024-03-29T03:25:53;98005.92;;;8.53;100.00
55517;BME280;41724;51.176;-0.708;2024-03-29T03:28:21;97991.01;;;7.72;100.00
55517;BME280;41724;51.176;-0.708;2024-03-29T03:30:48;97997.13;;;7.71;100.00
55517;BME280;41724;51.176;-0.708;2024-03-29T03:33:15;98013.21;;;7.95;100.00
55517;BME280;41724;51.176;-0.708;2024-03-29T03:35:42;98012.67;;;8.09;100.00
55517;BME280;41724;51.176;-0.708;2024-03-29T03:38:09;98018.64;;;8.12;100.00
55517;BME280;41724;51.176;-0.708;2024-03-29T03:40:37;98025.58;;;7.92;100.00
55517;BME280;41724;51.176;-0.708;2024-03-29T03:43:06;98027.77;;;8.34;100.00
55517;BME280;41724;51.176;-0.708;2024-03-29T03:45:34;98024.08;;;7.29;100.00
55517;BME280;41724;51.176;-0.708;2024-03-29T03:48:02;98027.63;;;7.10;100.00
55517;BME280;41724;51.176;-0.708;2024-03-29T03:50:29;98016.14;;;7.96;100.00
55517;BME280;41724;51.176;-0.708;2024-03-29T03:52:57;98007.77;;;7.93;100.00
55517;BME280;41724;51.176;-0.708;2024-03-29T03:55:24;98010.38;;;8.21;100.00
55517;BME280;41724;51.176;-0.708;2024-03-29T03:57:53;98018.14;;;8.06;100.00
55517;BME280;41724;51.176;-0.708;2024-03-29T04:00:22;98017.48;;;8.06;100.00
55517;BME280;41724;51.176;-0.708;2024-03-29T04:02:49;98016.07;;;8.57;100.00
55517;BME280;41724;51.176;-0.708;2024-03-29T04:05:16;98009.98;;;8.90;100.00
55517;BME280;41724;51.176;-0.708;2024-03-29T04:07:44;98010.69;;;9.07;99.58
55517;BME280;41724;51.176;-0.708;2024-03-29T04:10:11;98013.79;;;8.49;100.00
55517;BME280;41724;51.176;-0.708;2024-03-29T04:12:39;98006.28;;;9.14;98.90
55517;BME280;41724;51.176;-0.708;2024-03-29T04:15:07;98007.69;;;8.93;100.00
55517;BME280;41724;51.176;-0.708;2024-03-29T04:17:35;97998.87;;;9.84;97.01
55517;BME280;41724;51.176;-0.708;2024-03-29T04:20:02;97989.67;;;9.42;94.32
55517;BME280;41724;51.176;-0.708;2024-03-29T04:22:30;97991.71;;;9.71;94.29
55517;BME280;41724;51.176;-0.708;2024-03-29T04:24:57;97997.59;;;9.43;93.65
55517;BME280;41724;51.176;-0.708;2024-03-29T04:27:25;97997.67;;;9.41;93.53
55517;BME280;41724;51.176;-0.708;2024-03-29T04:29:53;97997.03;;;9.28;95.86
55517;BME280;41724;51.176;-0.708;2024-03-29T04:32:20;97997.34;;;9.51;94.35
55517;BME280;41724;51.176;-0.708;2024-03-29T04:34:48;98001.32;;;9.09;97.02
55517;BME280;41724;51.176;-0.708;2024-03-29T04:37:16;97998.62;;;9.44;95.48
55517;BME280;41724;51.176;-0.708;2024-03-29T04:39:43;97998.75;;;9.33;95.36
55517;BME280;41724;51.176;-0.708;2024-03-29T04:42:10;98002.97;;;7.86;100.00
55517;BME280;41724;51.176;-0.708;2024-03-29T04:44:38;98005.70;;;7.67;100.00
55517;BME280;41724;51.176;-0.708;2024-03-29T04:47:05;98002.48;;;8.02;100.00
55517;BME280;41724;51.176;-0.708;2024-03-29T04:49:33;98006.19;;;8.28;100.00
55517;BME280;41724;51.176;-0.708;2024-03-29T04:52:01;98010.05;;;8.54;100.00
55517;BME280;41724;51.176;-0.708;2024-03-29T04:54:28;98005.05;;;8.77;100.00
55517;BME280;41724;51.176;-0.708;2024-03-29T04:56:55;98011.47;;;8.33;100.00
55517;BME280;41724;51.176;-0.708;2024-03-29T04:59:22;98013.59;;;9.00;100.00
55517;BME280;41724;51.176;-0.708;2024-03-29T05:01:49;98020.75;;;9.07;100.00
55517;BME280;41724;51.176;-0.708;2024-03-29T05:04:17;98018.56;;;7.91;100.00
55517;BME280;41724;51.176;-0.708;2024-03-29T05:06:44;98022.96;;;8.01;100.00
55517;BME280;41724;51.176;-0.708;2024-03-29T05:09:11;98024.40;;;8.20;100.00
55517;BME280;41724;51.176;-0.708;2024-03-29T05:11:38;98025.30;;;8.37;100.00
55517;BME280;41724;51.176;-0.708;2024-03-29T05:14:05;98025.55;;;9.07;100.00
55517;BME280;41724;51.176;-0.708;2024-03-29T05:16:32;98025.95;;;8.49;100.00
55517;BME280;41724;51.176;-0.708;2024-03-29T05:18:59;98032.17;;;7.72;100.00
55517;BME280;41724;51.176;-0.708;2024-03-29T05:21:26;98032.62;;;8.39;100.00
55517;BME280;41724;51.176;-0.708;2024-03-29T05:23:53;98027.74;;;7.99;100.00
55517;BME280;41724;51.176;-0.708;2024-03-29T05:26:20;98035.59;;;8.46;100.00
55517;BME280;41724;51.176;-0.708;2024-03-29T05:28:47;98038.10;;;8.51;100.00
55517;BME280;41724;51.176;-0.708;2024-03-29T05:31:15;98036.88;;;7.82;100.00
55517;BME280;41724;51.176;-0.708;2024-03-29T05:33:43;98031.97;;;7.85;100.00
55517;BME280;41724;51.176;-0.708;2024-03-29T05:36:10;98027.53;;;9.15;100.00
55517;BME280;41724;51.176;-0.708;2024-03-29T05:38:37;98036.69;;;8.30;100.00
55517;BME280;41724;51.176;-0.708;2024-03-29T05:41:04;98036.00;;;8.07;100.00
55517;BME280;41724;51.176;-0.708;2024-03-29T05:43:32;98039.24;;;6.99;100.00
55517;BME280;41724;51.176;-0.708;2024-03-29T05:45:59;98038.28;;;8.30;100.00
55517;BME280;41724;51.176;-0.708;2024-03-29T05:48:26;98037.74;;;8.15;100.00
55517;BME280;41724;51.176;-0.708;2024-03-29T05:50:54;98039.00;;;7.75;100.00
55517;BME280;41724;51.176;-0.708;2024-03-29T05:53:21;98039.03;;;7.34;100.00
55517;BME280;41724;51.176;-0.708;2024-03-29T05:55:48;98040.28;;;8.03;100.00
55517;BME280;41724;51.176;-0.708;2024-03-29T05:58:15;98037.61;;;8.06;100.00
55517;BME280;41724;51.176;-0.708;2024-03-29T06:00:42;98039.81;;;8.48;100.00
55517;BME280;41724;51.176;-0.708;2024-03-29T06:03:09;98042.70;;;8.21;100.00
55517;BME280;41724;51.176;-0.708;2024-03-29T06:05:36;98044.18;;;8.66;100.00
55517;BME280;41724;51.176;-0.708;2024-03-29T06:08:04;98040.87;;;8.18;100.00
55517;BME280;41724;51.176;-0.708;2024-03-29T06:10:31;98042.93;;;7.24;100.00
55517;BME280;41724;51.176;-0.708;2024-03-29T06:12:59;98041.20;;;8.15;100.00
55517;BME280;41724;51.176;-0.708;2024-03-29T06:15:26;98043.85;;;7.47;100.00
55517;BME280;41724;51.176;-0.708;2024-03-29T06:17:53;98046.86;;;8.32;100.00
55517;BME280;41724;51.176;-0.708;2024-03-29T06:20:20;98045.67;;;8.19;100.00
55517;BME280;41724;51.176;-0.708;2024-03-29T06:22:48;98050.96;;;7.19;100.00
55517;BME280;41724;51.176;-0.708;2024-03-29T06:25:15;98055.64;;;7.06;100.00
55517;BME280;41724;51.176;-0.708;2024-03-29T06:27:42;98053.24;;;7.12;100.00
55517;BME280;41724;51.176;-0.708;2024-03-29T06:30:10;98053.17;;;7.28;100.00
55517;BME280;41724;51.176;-0.708;2024-03-29T06:32:37;98049.91;;;6.54;100.00
55517;BME280;41724;51.176;-0.708;2024-03-29T06:35:05;98051.39;;;7.05;100.00
55517;BME280;41724;51.176;-0.708;2024-03-29T06:37:33;98048.82;;;8.09;100.00
55517;BME280;41724;51.176;-0.708;2024-03-29T06:40:00;98041.66;;;8.39;100.00
55517;BME280;41724;51.176;-0.708;2024-03-29T06:42:27;98046.44;;;7.84;100.00
55517;BME280;41724;51.176;-0.708;2024-03-29T06:44:54;98055.52;;;7.12;100.00
55517;BME280;41724;51.176;-0.708;2024-03-29T06:47:21;98053.31;;;8.20;100.00
55517;BME280;41724;51.176;-0.708;2024-03-29T06:49:48;98066.93;;;7.87;100.00
55517;BME280;41724;51.176;-0.708;2024-03-29T06:52:16;98062.38;;;7.23;100.00
55517;BME280;41724;51.176;-0.708;2024-03-29T06:54:43;98069.21;;;7.54;100.00
55517;BME280;41724;51.176;-0.708;2024-03-29T06:57:10;98069.56;;;8.05;100.00
55517;BME280;41724;51.176;-0.708;2024-03-29T06:59:37;98055.77;;;8.51;100.00
55517;BME280;41724;51.176;-0.708;2024-03-29T07:02:05;98056.89;;;8.67;99.89
55517;BME280;41724;51.176;-0.708;2024-03-29T07:04:32;98062.13;;;8.00;100.00
55517;BME280;41724;51.176;-0.708;2024-03-29T07:06:59;98059.03;;;9.22;100.00
55517;BME280;41724;51.176;-0.708;2024-03-29T07:09:26;98063.97;;;8.14;100.00
55517;BME280;41724;51.176;-0.708;2024-03-29T07:11:53;98065.55;;;8.51;99.94
55517;BME280;41724;51.176;-0.708;2024-03-29T07:14:20;98066.15;;;7.68;100.00
55517;BME280;41724;51.176;-0.708;2024-03-29T07:16:47;98069.10;;;8.40;100.00
55517;BME280;41724;51.176;-0.708;2024-03-29T07:19:15;98068.33;;;9.32;100.00
55517;BME280;41724;51.176;-0.708;2024-03-29T07:21:42;98066.98;;;8.39;100.00
55517;BME280;41724;51.176;-0.708;2024-03-29T07:24:10;98068.41;;;8.67;100.00
55517;BME280;41724;51.176;-0.708;2024-03-29T07:26:38;98072.07;;;7.51;100.00
55517;BME280;41724;51.176;-0.708;2024-03-29T07:29:05;98067.15;;;8.29;100.00
55517;BME280;41724;51.176;-0.708;2024-03-29T07:31:33;98070.12;;;7.79;100.00
55517;BME280;41724;51.176;-0.708;2024-03-29T07:34:00;98079.18;;;7.96;100.00
55517;BME280;41724;51.176;-0.708;2024-03-29T07:36:28;98077.53;;;7.93;100.00
55517;BME280;41724;51.176;-0.708;2024-03-29T07:38:55;98085.05;;;7.99;100.00
55517;BME280;41724;51.176;-0.708;2024-03-29T07:41:22;98078.92;;;7.64;100.00
55517;BME280;41724;51.176;-0.708;2024-03-29T07:43:54;98089.47;;;8.63;100.00
55517;BME280;41724;51.176;-0.708;2024-03-29T07:46:21;98083.26;;;9.06;100.00
55517;BME280;41724;51.176;-0.708;2024-03-29T07:48:48;98089.31;;;7.67;100.00
55517;BME280;41724;51.176;-0.708;2024-03-29T07:51:16;98093.20;;;8.04;100.00
55517;BME280;41724;51.176;-0.708;2024-03-29T07:53:42;98097.41;;;8.13;100.00
55517;BME280;41724;51.176;-0.708;2024-03-29T07:56:09;98094.74;;;7.53;100.00
55517;BME280;41724;51.176;-0.708;2024-03-29T07:58:36;98093.16;;;7.73;100.00
55517;BME280;41724;51.176;-0.708;2024-03-29T08:01:04;98097.91;;;8.35;100.00
55517;BME280;41724;51.176;-0.708;2024-03-29T08:03:31;98104.88;;;8.06;100.00
55517;BME280;41724;51.176;-0.708;2024-03-29T08:05:58;98106.51;;;7.91;100.00
55517;BME280;41724;51.176;-0.708;2024-03-29T08:08:26;98103.11;;;8.58;100.00
55517;BME280;41724;51.176;-0.708;2024-03-29T08:10:53;98109.89;;;8.52;100.00
55517;BME280;41724;51.176;-0.708;2024-03-29T08:13:21;98110.79;;;8.20;100.00
55517;BME280;41724;51.176;-0.708;2024-03-29T08:15:47;98119.56;;;9.23;100.00
55517;BME280;41724;51.176;-0.708;2024-03-29T08:18:16;98115.46;;;9.47;100.00
55517;BME280;41724;51.176;-0.708;2024-03-29T08:20:43;98123.97;;;9.05;100.00
55517;BME280;41724;51.176;-0.708;2024-03-29T08:23:09;98121.68;;;8.72;100.00
55517;BME280;41724;51.176;-0.708;2024-03-29T08:25:37;98133.86;;;8.31;100.00
55517;BME280;41724;51.176;-0.708;2024-03-29T08:28:04;98135.18;;;8.49;100.00
55517;BME280;41724;51.176;-0.708;2024-03-29T08:30:31;98134.06;;;8.22;100.00
55517;BME280;41724;51.176;-0.708;2024-03-29T08:32:58;98139.77;;;8.61;100.00
55517;BME280;41724;51.176;-0.708;2024-03-29T08:35:25;98139.66;;;8.83;100.00
55517;BME280;41724;51.176;-0.708;2024-03-29T08:37:52;98135.00;;;8.30;100.00
55517;BME280;41724;51.176;-0.708;2024-03-29T08:40:20;98132.08;;;8.69;100.00
55517;BME280;41724;51.176;-0.708;2024-03-29T08:42:47;98135.78;;;8.51;100.00
55517;BME280;41724;51.176;-0.708;2024-03-29T08:45:14;98135.62;;;9.00;100.00
55517;BME280;41724;51.176;-0.708;2024-03-29T08:47:42;98141.90;;;7.90;100.00
55517;BME280;41724;51.176;-0.708;2024-03-29T08:50:09;98149.10;;;8.74;100.00
55517;BME280;41724;51.176;-0.708;2024-03-29T08:52:36;98150.08;;;9.57;100.00
55517;BME280;41724;51.176;-0.708;2024-03-29T08:55:03;98145.99;;;8.98;100.00
55517;BME280;41724;51.176;-0.708;2024-03-29T08:57:31;98143.91;;;10.05;100.00
55517;BME280;41724;51.176;-0.708;2024-03-29T08:59:58;98148.91;;;8.78;100.00
55517;BME280;41724;51.176;-0.708;2024-03-29T09:02:26;98150.92;;;8.83;100.00
55517;BME280;41724;51.176;-0.708;2024-03-29T09:04:53;98162.93;;;8.87;100.00
55517;BME280;41724;51.176;-0.708;2024-03-29T09:07:20;98156.68;;;8.90;100.00
55517;BME280;41724;51.176;-0.708;2024-03-29T09:09:47;98162.19;;;9.02;100.00
55517;BME280;41724;51.176;-0.708;2024-03-29T09:12:14;98154.56;;;9.47;100.00
55517;BME280;41724;51.176;-0.708;2024-03-29T09:14:41;98155.04;;;9.61;100.00
55517;BME280;41724;51.176;-0.708;2024-03-29T09:17:08;98165.93;;;8.98;100.00
55517;BME280;41724;51.176;-0.708;2024-03-29T09:19:35;98182.71;;;8.37;100.00
55517;BME280;41724;51.176;-0.708;2024-03-29T09:22:03;98178.80;;;8.10;100.00
55517;BME280;41724;51.176;-0.708;2024-03-29T09:24:30;98184.96;;;8.64;100.00
55517;BME280;41724;51.176;-0.708;2024-03-29T09:26:57;98192.77;;;8.51;100.00
55517;BME280;41724;51.176;-0.708;2024-03-29T09:29:24;98183.14;;;8.92;100.00
55517;BME280;41724;51.176;-0.708;2024-03-29T09:31:51;98191.09;;;9.72;100.00
55517;BME280;41724;51.176;-0.708;2024-03-29T09:34:18;98198.14;;;9.32;100.00
55517;BME280;41724;51.176;-0.708;2024-03-29T09:36:45;98193.13;;;9.34;100.00
55517;BME280;41724;51.176;-0.708;2024-03-29T09:39:13;98198.63;;;9.10;100.00
55517;BME280;41724;51.176;-0.708;2024-03-29T09:41:40;98201.34;;;8.93;100.00
55517;BME280;41724;51.176;-0.708;2024-03-29T09:44:11;98199.59;;;9.07;100.00
55517;BME280;41724;51.176;-0.708;2024-03-29T09:46:38;98205.86;;;9.25;100.00
55517;BME280;41724;51.176;-0.708;2024-03-29T09:49:06;98195.72;;;9.25;100.00
55517;BME280;41724;51.176;-0.708;2024-03-29T09:51:34;98199.57;;;8.69;100.00
55517;BME280;41724;51.176;-0.708;2024-03-29T09:54:01;98198.54;;;8.69;100.00
55517;BME280;41724;51.176;-0.708;2024-03-29T09:56:30;98196.18;;;9.39;100.00
55517;BME280;41724;51.176;-0.708;2024-03-29T09:58:57;98193.82;;;9.72;100.00
55517;BME280;41724;51.176;-0.708;2024-03-29T10:01:24;98199.67;;;9.84;100.00
55517;BME280;41724;51.176;-0.708;2024-03-29T10:03:52;98201.48;;;9.94;100.00
55517;BME280;41724;51.176;-0.708;2024-03-29T10:06:23;98199.59;;;9.76;100.00
55517;BME280;41724;51.176;-0.708;2024-03-29T10:08:50;98204.97;;;10.71;100.00
55517;BME280;41724;51.176;-0.708;2024-03-29T10:11:17;98211.58;;;9.93;100.00
55517;BME280;41724;51.176;-0.708;2024-03-29T10:13:45;98203.00;;;9.99;100.00
55517;BME280;41724;51.176;-0.708;2024-03-29T10:16:12;98205.83;;;10.05;100.00
55517;BME280;41724;51.176;-0.708;2024-03-29T10:18:41;98198.01;;;10.49;100.00
55517;BME280;41724;51.176;-0.708;2024-03-29T10:21:08;98213.68;;;10.59;100.00
55517;BME280;41724;51.176;-0.708;2024-03-29T10:23:36;98205.19;;;10.96;100.00
55517;BME280;41724;51.176;-0.708;2024-03-29T10:26:03;98214.40;;;11.39;100.00
55517;BME280;41724;51.176;-0.708;2024-03-29T10:28:32;98215.57;;;11.03;100.00
55517;BME280;41724;51.176;-0.708;2024-03-29T10:31:00;98226.10;;;11.16;100.00
55517;BME280;41724;51.176;-0.708;2024-03-29T10:33:28;98226.50;;;9.74;100.00
55517;BME280;41724;51.176;-0.708;2024-03-29T10:35:55;98228.90;;;9.88;100.00
55517;BME280;41724;51.176;-0.708;2024-03-29T10:38:24;98225.33;;;11.02;100.00
55517;BME280;41724;51.176;-0.708;2024-03-29T10:40:52;98228.12;;;9.53;100.00
55517;BME280;41724;51.176;-0.708;2024-03-29T10:43:20;98231.72;;;9.81;100.00
55517;BME280;41724;51.176;-0.708;2024-03-29T10:45:47;98238.15;;;10.54;100.00
55517;BME280;41724;51.176;-0.708;2024-03-29T10:48:15;98240.29;;;9.88;100.00
55517;BME280;41724;51.176;-0.708;2024-03-29T10:50:44;98236.04;;;9.57;100.00
55517;BME280;41724;51.176;-0.708;2024-03-29T10:53:12;98240.24;;;9.34;100.00
55517;BME280;41724;51.176;-0.708;2024-03-29T10:55:42;98236.35;;;9.77;100.00
55517;BME280;41724;51.176;-0.708;2024-03-29T10:58:11;98256.34;;;9.54;100.00
55517;BME280;41724;51.176;-0.708;2024-03-29T11:00:41;98253.70;;;9.50;100.00
55517;BME280;41724;51.176;-0.708;2024-03-29T11:03:17;98254.70;;;9.76;100.00
55517;BME280;41724;51.176;-0.708;2024-03-29T11:05:49;98250.04;;;9.47;100.00
55517;BME280;41724;51.176;-0.708;2024-03-29T11:08:20;98257.45;;;9.14;100.00
55517;BME280;41724;51.176;-0.708;2024-03-29T11:10:50;98253.92;;;10.24;100.00
55517;BME280;41724;51.176;-0.708;2024-03-29T11:13:35;98252.95;;;10.08;100.00
55517;BME280;41724;51.176;-0.708;2024-03-29T11:16:04;98254.26;;;10.38;100.00
55517;BME280;41724;51.176;-0.708;2024-03-29T11:18:32;98249.14;;;10.52;100.00
55517;BME280;41724;51.176;-0.708;2024-03-29T11:21:01;98270.57;;;10.31;98.59
55517;BME280;41724;51.176;-0.708;2024-03-29T11:23:28;98247.01;;;10.58;100.00
55517;BME280;41724;51.176;-0.708;2024-03-29T11:25:57;98235.51;;;10.70;100.00
55517;BME280;41724;51.176;-0.708;2024-03-29T11:28:26;98243.49;;;10.87;100.00
55517;BME280;41724;51.176;-0.708;2024-03-29T11:30:57;98264.03;;;10.89;100.00
55517;BME280;41724;51.176;-0.708;2024-03-29T11:33:28;98242.40;;;11.37;96.98
55517;BME280;41724;51.176;-0.708;2024-03-29T11:35:56;98245.23;;;12.17;98.36
55517;BME280;41724;51.176;-0.708;2024-03-29T11:38:31;98243.36;;;11.81;91.76
55517;BME280;41724;51.176;-0.708;2024-03-29T11:41:03;98249.08;;;11.41;92.15
55517;BME280;41724;51.176;-0.708;2024-03-29T11:43:33;98257.17;;;10.27;98.91
55517;BME280;41724;51.176;-0.708;2024-03-29T11:46:01;98254.52;;;11.21;100.00
55517;BME280;41724;51.176;-0.708;2024-03-29T11:48:30;98257.16;;;10.43;94.84
55517;BME280;41724;51.176;-0.708;2024-03-29T11:50:57;98260.94;;;12.06;91.94
55517;BME280;41724;51.176;-0.708;2024-03-29T11:53:25;98261.05;;;11.64;90.58
55517;BME280;41724;51.176;-0.708;2024-03-29T11:55:52;98260.40;;;11.51;91.45
55517;BME280;41724;51.176;-0.708;2024-03-29T11:58:20;98271.52;;;11.35;92.48
55517;BME280;41724;51.176;-0.708;2024-03-29T12:00:47;98269.54;;;11.16;94.26
55517;BME280;41724;51.176;-0.708;2024-03-29T12:03:14;98274.74;;;10.57;94.51
55517;BME280;41724;51.176;-0.708;2024-03-29T12:05:41;98277.95;;;11.14;90.29
55517;BME280;41724;51.176;-0.708;2024-03-29T12:08:09;98269.29;;;11.39;97.54
55517;BME280;41724;51.176;-0.708;2024-03-29T12:10:37;98275.36;;;12.08;93.33
55517;BME280;41724;51.176;-0.708;2024-03-29T12:13:04;98294.44;;;10.89;89.76
55517;BME280;41724;51.176;-0.708;2024-03-29T12:15:32;98288.18;;;10.12;98.97
55517;BME280;41724;51.176;-0.708;2024-03-29T12:18:00;98292.86;;;10.99;96.60
55517;BME280;41724;51.176;-0.708;2024-03-29T12:20:29;98289.11;;;10.19;97.58
55517;BME280;41724;51.176;-0.708;2024-03-29T12:22:56;98280.89;;;11.66;96.39
55517;BME280;41724;51.176;-0.708;2024-03-29T12:25:26;98284.94;;;12.15;91.70
55517;BME280;41724;51.176;-0.708;2024-03-29T12:27:53;98284.25;;;11.98;92.03
55517;BME280;41724;51.176;-0.708;2024-03-29T12:30:21;98278.61;;;11.47;87.93
55517;BME280;41724;51.176;-0.708;2024-03-29T12:32:59;98279.77;;;12.34;89.22
55517;BME280;41724;51.176;-0.708;2024-03-29T12:35:27;98279.80;;;11.21;90.55
55517;BME280;41724;51.176;-0.708;2024-03-29T12:37:57;98304.59;;;11.53;89.53
55517;BME280;41724;51.176;-0.708;2024-03-29T12:40:25;98290.70;;;10.77;85.24
55517;BME280;41724;51.176;-0.708;2024-03-29T12:42:53;98284.49;;;11.53;94.22
55517;BME280;41724;51.176;-0.708;2024-03-29T12:45:20;98291.96;;;11.57;84.25
55517;BME280;41724;51.176;-0.708;2024-03-29T12:47:49;98286.92;;;12.40;87.91
55517;BME280;41724;51.176;-0.708;2024-03-29T12:50:25;98287.34;;;12.19;83.44
55517;BME280;41724;51.176;-0.708;2024-03-29T12:52:54;98294.74;;;13.73;76.97